Time;durP1;ratioP1;P1;durP2;ratioP2;P2;SDS_P1;SDS_P2;PMS_P1;PMS_P2;Temp;Humidity;BMP_temperature;BMP_pressure;BME280_temperature;BME280_humidity;BME280_pressure;Samples;Min_cycle;Max_cycle;Signal;HPM_P1;HPM_P2
2022/07/29 04:22:47;;;;;;;9.68;8.05;;;;;;;17.58;94.16;99935.34;5089046;28;20324;-64
2022/07/29 04:25:12;;;;;;;12.85;8.73;;;;;;;17.61;93.83;99940.31;5087748;28;20033;-64
2022/07/29 04:27:59;;;;;;;11.05;8.35;;;;;;;17.54;94.24;99936.88;5089222;28;20497;-64
2022/07/29 04:30:23;;;;;;;10.88;8.60;;;;;;;17.54;93.91;99942.25;5088687;28;20051;-64
2022/07/29 04:32:48;;;;;;;12.13;8.93;;;;;;;17.61;94.18;99943.00;5088895;28;20036;-64
2022/07/29 04:35:14;;;;;;;10.00;8.60;;;;;;;17.60;94.00;99945.91;5088141;28;20043;-65
2022/07/29 04:37:39;;;;;;;13.98;10.23;;;;;;;17.57;94.16;99941.78;5088957;28;20074;-65
2022/07/29 04:40:05;;;;;;;19.08;10.90;;;;;;;17.60;94.20;99957.53;5088619;28;20115;-65
2022/07/29 04:42:31;;;;;;;11.13;8.27;;;;;;;17.63;93.92;99954.34;5088838;28;20426;-65
2022/07/29 04:44:56;;;;;;;13.70;8.80;;;;;;;17.67;93.68;99949.34;5088901;28;20085;-65
2022/07/29 04:47:21;;;;;;;11.65;8.32;;;;;;;17.67;93.48;99951.19;5087488;28;20032;-65
2022/07/29 04:49:47;;;;;;;10.65;7.88;;;;;;;17.64;94.42;99958.69;5088509;28;20036;-65
2022/07/29 04:52:12;;;;;;;11.15;8.75;;;;;;;17.67;93.43;99960.13;5088636;28;20508;-65
2022/07/29 04:54:38;;;;;;;10.23;8.38;;;;;;;17.67;93.90;99956.59;5088730;28;20123;-65
2022/07/29 04:57:03;;;;;;;12.32;9.00;;;;;;;17.68;93.84;99958.25;5088578;28;20033;-64
2022/07/29 04:59:29;;;;;;;10.90;8.10;;;;;;;17.71;93.78;99957.78;5088273;28;20048;-65
2022/07/29 05:01:54;;;;;;;13.85;8.90;;;;;;;17.72;93.44;99960.28;5088487;28;20045;-65
2022/07/29 05:04:19;;;;;;;12.25;10.10;;;;;;;17.79;93.39;99957.50;5088526;28;20040;-65
2022/07/29 05:06:45;;;;;;;13.85;9.75;;;;;;;17.83;93.48;99966.78;5088316;28;20044;-65
2022/07/29 05:09:10;;;;;;;16.98;10.23;;;;;;;17.89;93.23;99973.97;5088143;28;20079;-65
2022/07/29 05:11:36;;;;;;;13.27;9.05;;;;;;;17.90;93.06;99967.50;5088310;28;20177;-65
2022/07/29 05:14:01;;;;;;;16.35;10.50;;;;;;;17.91;93.46;99969.16;5088206;28;20079;-65
2022/07/29 05:16:27;;;;;;;13.48;9.75;;;;;;;17.96;93.49;99973.88;5088279;28;20050;-65
2022/07/29 05:18:52;;;;;;;14.95;10.05;;;;;;;18.00;93.46;99973.19;5088090;28;20134;-65
2022/07/29 05:21:18;;;;;;;12.23;9.43;;;;;;;18.03;93.17;99977.28;5087646;28;20047;-64
2022/07/29 05:23:43;;;;;;;16.23;9.50;;;;;;;18.10;92.68;99970.75;5088087;28;20032;-65
2022/07/29 05:26:09;;;;;;;18.42;10.85;;;;;;;18.18;92.35;99969.59;5087960;28;20040;-65
2022/07/29 05:28:34;;;;;;;19.17;10.25;;;;;;;18.23;92.25;99971.63;5086825;28;20043;-65
2022/07/29 05:31:00;;;;;;;16.95;10.20;;;;;;;18.25;92.05;99966.81;5087746;28;20032;-65
2022/07/29 05:33:25;;;;;;;15.77;10.40;;;;;;;18.32;91.61;99989.94;5078418;28;20033;-64
2022/07/29 05:35:51;;;;;;;16.23;10.68;;;;;;;18.36;90.82;99971.41;5074332;28;20036;-64
2022/07/29 05:38:16;;;;;;;13.23;9.52;;;;;;;18.36;90.73;99971.41;5074407;28;20125;-65
2022/07/29 05:40:42;;;;;;;14.90;10.30;;;;;;;18.38;89.45;99980.09;5073149;28;20512;-65
2022/07/29 05:43:07;;;;;;;17.02;10.90;;;;;;;18.43;88.40;99988.31;5074292;28;20117;-65
2022/07/29 05:45:33;;;;;;;14.95;9.60;;;;;;;18.45;86.91;99983.50;5074211;28;20038;-64
2022/07/29 05:47:58;;;;;;;16.65;10.52;;;;;;;18.47;86.73;99980.59;5074205;28;20508;-49
2022/07/29 05:50:24;;;;;;;15.70;9.00;;;;;;;18.51;86.61;99990.69;5073928;28;20067;-49
2022/07/29 05:52:49;;;;;;;15.02;9.05;;;;;;;18.58;85.60;99993.28;5074138;28;20033;-50
2022/07/29 05:55:15;;;;;;;12.82;8.75;;;;;;;18.60;85.23;99994.69;5073981;28;20040;-47
2022/07/29 05:57:40;;;;;;;20.17;8.80;;;;;;;18.67;84.93;99994.63;5074066;28;20054;-47
2022/07/29 06:00:06;;;;;;;13.10;9.05;;;;;;;18.67;84.11;99994.63;5073724;28;20040;-48
2022/07/29 06:02:37;;;;;;;11.80;8.43;;;;;;;18.73;83.65;100003.66;5074027;28;20654;-50
2022/07/29 06:05:03;;;;;;;12.13;8.48;;;;;;;18.81;83.12;99997.94;5073942;28;20048;-51
2022/07/29 06:07:29;;;;;;;10.63;8.35;;;;;;;18.88;83.43;100002.16;5073817;28;20078;-51
2022/07/29 06:09:54;;;;;;;12.43;8.63;;;;;;;19.00;82.83;100009.44;5073536;28;20044;-51
2022/07/29 06:12:19;;;;;;;12.13;8.88;;;;;;;19.06;82.23;100020.13;5074124;28;20032;-51
2022/07/29 06:14:45;;;;;;;11.18;8.52;;;;;;;19.18;81.80;100020.94;5073675;28;20090;-52
2022/07/29 06:17:11;;;;;;;11.57;8.73;;;;;;;19.27;81.06;100020.59;5073575;28;20098;-49
2022/07/29 06:19:37;;;;;;;14.75;9.27;;;;;;;19.33;81.21;100025.06;5073354;28;20444;-52
2022/07/29 06:22:03;;;;;;;17.52;8.52;;;;;;;19.44;80.19;100027.75;5073400;28;20140;-53
2022/07/29 06:24:29;;;;;;;18.80;8.90;;;;;;;19.53;78.86;100023.63;5073407;28;20115;-51
2022/07/29 06:26:54;;;;;;;11.38;7.85;;;;;;;19.61;78.70;100018.94;5073396;28;20123;-49
2022/07/29 06:29:19;;;;;;;11.82;8.38;;;;;;;19.68;78.54;100020.44;5073209;28;20036;-47
2022/07/29 06:31:45;;;;;;;10.10;7.68;;;;;;;19.79;76.57;100025.00;5073415;28;20032;-52
2022/07/29 06:34:10;;;;;;;11.32;7.97;;;;;;;19.88;76.02;100028.16;5073281;28;20119;-52
2022/07/29 06:36:36;;;;;;;11.70;7.10;;;;;;;20.04;74.31;100026.59;5073230;28;20120;-52
2022/07/29 06:39:08;;;;;;;13.13;7.13;;;;;;;20.17;73.55;100028.19;5071775;28;20036;-51
2022/07/29 06:41:34;;;;;;;11.48;7.53;;;;;;;20.27;73.51;100026.47;5073130;28;20033;-50
2022/07/29 06:44:08;;;;;;;18.30;8.55;;;;;;;20.38;72.62;100032.09;5071017;28;20025;-49
2022/07/29 06:46:33;;;;;;;10.13;7.00;;;;;;;20.47;72.43;100031.47;5072883;28;20032;-50
2022/07/29 06:49:01;;;;;;;14.45;8.05;;;;;;;20.55;71.77;100032.97;5072801;28;20104;-51
2022/07/29 06:51:27;;;;;;;;;;;;;;;20.63;72.73;100029.88;5073216;28;20033;-52
2022/07/29 06:53:52;;;;;;;14.18;7.80;;;;;;;20.67;71.26;100028.31;5072921;28;19912;-49
2022/07/29 06:56:18;;;;;;;13.43;7.72;;;;;;;20.79;70.91;100034.47;5071542;28;20110;-48
2022/07/29 06:58:43;;;;;;;11.75;7.20;;;;;;;20.88;70.70;100034.06;5072641;28;20036;-53
2022/07/29 07:01:09;;;;;;;7.78;6.13;;;;;;;20.98;70.25;100028.81;5072489;28;20098;-50
2022/07/29 07:03:34;;;;;;;8.05;6.55;;;;;;;21.04;70.27;100035.94;5072646;28;20459;-51
2022/07/29 07:05:59;;;;;;;10.55;6.68;;;;;;;21.09;70.33;100034.13;5072546;28;20036;-52
2022/07/29 07:08:25;;;;;;;9.38;6.70;;;;;;;21.24;68.68;100030.84;5072585;28;20127;-49
2022/07/29 07:10:52;;;;;;;13.02;9.73;;;;;;;21.34;68.50;100033.72;5071128;28;20033;-51
2022/07/29 07:13:18;;;;;;;11.32;8.20;;;;;;;21.46;69.35;100035.53;5072386;28;20029;-50
2022/07/29 07:15:45;;;;;;;10.35;6.63;;;;;;;21.61;67.33;100041.97;5072439;28;20043;-53
2022/07/29 07:18:10;;;;;;;11.15;7.68;;;;;;;21.70;66.64;100047.75;5072422;28;20402;-52
2022/07/29 07:20:36;;;;;;;9.02;6.50;;;;;;;21.81;67.33;100048.72;5071871;28;20048;-53
2022/07/29 07:23:02;;;;;;;9.45;6.35;;;;;;;21.94;66.31;100056.47;5072228;28;20041;-49
2022/07/29 07:25:28;;;;;;;9.82;6.72;;;;;;;22.05;66.59;100049.28;5071102;28;20047;-51
2022/07/29 07:27:53;;;;;;;7.65;5.88;;;;;;;22.15;66.52;100055.66;5072312;28;20448;-48
2022/07/29 07:30:19;;;;;;;12.48;6.80;;;;;;;22.24;66.34;100053.34;5071872;28;20068;-46
2022/07/29 07:32:44;;;;;;;8.63;6.47;;;;;;;22.32;65.78;100052.88;5072105;28;20033;-52
2022/07/29 07:35:10;;;;;;;9.57;6.70;;;;;;;22.47;63.73;100055.75;5070704;28;20044;-50
2022/07/29 07:37:36;;;;;;;8.05;6.55;;;;;;;22.55;63.98;100053.63;5072087;28;20036;-54
2022/07/29 07:40:03;;;;;;;7.22;6.10;;;;;;;22.65;63.81;100056.47;5071749;28;20033;-53
2022/07/29 07:42:29;;;;;;;9.63;5.75;;;;;;;22.84;63.02;100051.47;5070742;28;20120;-49
2022/07/29 07:44:54;;;;;;;7.22;5.22;;;;;;;22.99;62.90;100054.34;5071982;28;20422;-51
2022/07/29 07:47:20;;;;;;;8.43;5.60;;;;;;;23.09;63.73;100050.91;5072067;28;20036;-47
2022/07/29 07:49:46;;;;;;;8.25;5.72;;;;;;;23.17;62.03;100056.66;5070905;28;20064;-50
2022/07/29 07:52:12;;;;;;;8.90;5.90;;;;;;;23.22;60.02;100051.28;5072134;28;20040;-51
2022/07/29 07:54:38;;;;;;;6.90;5.00;;;;;;;23.39;61.08;100051.09;5071858;28;20052;-49
2022/07/29 07:57:03;;;;;;;8.43;5.45;;;;;;;23.54;58.16;100055.81;5071591;28;20032;-47
2022/07/29 07:59:29;;;;;;;6.43;5.22;;;;;;;23.51;57.57;100050.91;5071186;28;20400;-49
2022/07/29 08:01:54;;;;;;;7.68;4.97;;;;;;;23.45;57.79;100057.38;5072111;28;20040;-46
2022/07/29 08:04:19;;;;;;;7.15;4.82;;;;;;;23.43;58.49;100063.09;5066195;28;20036;-48
2022/07/29 08:06:45;;;;;;;13.00;5.43;;;;;;;23.48;58.90;100060.41;5070773;28;20049;-48
2022/07/29 08:09:10;;;;;;;6.97;4.80;;;;;;;23.46;58.33;100062.53;5069945;28;20040;-49
2022/07/29 08:11:36;;;;;;;8.73;5.57;;;;;;;23.47;57.85;100068.78;5071608;28;20043;-52
2022/07/29 08:14:01;;;;;;;5.57;4.72;;;;;;;23.47;59.94;100068.78;5037508;28;20029;-49
2022/07/29 08:16:27;;;;;;;9.07;4.80;;;;;;;23.39;58.18;100067.41;5071599;28;20177;-46
2022/07/29 08:18:56;;;;;;;6.10;4.45;;;;;;;23.38;57.27;100059.50;5071479;28;20096;-49
2022/07/29 08:21:23;;;;;;;4.80;4.30;;;;;;;23.39;58.61;100053.81;5070624;28;20374;-47
2022/07/29 08:23:52;;;;;;;6.22;4.97;;;;;;;23.35;56.29;100060.88;5068748;28;20032;-47
2022/07/29 08:26:18;;;;;;;5.40;4.45;;;;;;;23.45;56.58;100070.97;5075710;28;20031;-47
2022/07/29 08:28:45;;;;;;;7.97;4.40;;;;;;;23.60;57.35;100065.63;5091254;28;20186;-54
2022/07/29 08:31:11;;;;;;;;;;;;;;;23.77;54.81;100068.19;5091475;28;20032;-45
2022/07/29 08:33:36;;;;;;;6.55;3.55;;;;;;;23.84;53.90;100074.22;5079867;28;19982;-49
2022/07/29 08:36:02;;;;;;;6.68;4.15;;;;;;;23.91;53.90;100069.34;5071354;28;20120;-47
2022/07/29 08:38:27;;;;;;;5.38;3.70;;;;;;;24.03;52.28;100074.56;5071363;28;20068;-53
2022/07/29 08:40:53;;;;;;;5.63;4.20;;;;;;;24.03;51.04;100069.94;5076340;28;20039;-49
2022/07/29 08:43:19;;;;;;;6.32;3.97;;;;;;;24.16;52.16;100060.47;5079417;28;20047;-47
2022/07/29 08:45:46;;;;;;;4.85;3.60;;;;;;;24.45;50.88;100073.63;5080286;28;20043;-48
2022/07/29 08:48:13;;;;;;;5.05;3.47;;;;;;;24.61;50.71;100067.13;5078481;28;20048;-46
2022/07/29 08:50:40;;;;;;;17.95;4.07;;;;;;;24.88;49.16;100072.34;5070654;28;20037;-46
2022/07/29 08:53:10;;;;;;;6.30;3.60;;;;;;;25.15;48.53;100072.91;5058399;28;20101;-51
2022/07/29 08:55:38;;;;;;;7.15;3.90;;;;;;;25.02;49.16;100072.59;5083396;28;20037;-51
2022/07/29 08:58:05;;;;;;;6.13;3.45;;;;;;;24.89;48.86;100074.78;5082700;28;20048;-48
2022/07/29 09:00:31;;;;;;;3.88;3.22;;;;;;;24.90;49.23;100062.78;5074497;28;20028;-45
2022/07/29 09:02:58;;;;;;;7.93;3.83;;;;;;;24.91;49.81;100058.19;5087536;28;20040;-59
2022/07/29 09:05:26;;;;;;;7.20;3.60;;;;;;;25.03;48.56;100061.44;5077140;28;20477;-62
2022/07/29 09:07:52;;;;;;;6.65;4.03;;;;;;;25.27;48.58;100066.34;5077711;28;20107;-64
2022/07/29 09:10:18;;;;;;;6.88;3.72;;;;;;;25.38;48.30;100067.97;5054230;28;20064;-63
2022/07/29 09:12:43;;;;;;;6.15;3.30;;;;;;;25.70;48.32;100075.81;5054862;28;20033;-60
2022/07/29 09:15:09;;;;;;;7.57;3.60;;;;;;;25.81;48.30;100073.88;5085559;28;20039;-63
2022/07/29 09:17:46;;;;;;;5.43;3.30;;;;;;;25.97;46.37;100064.56;5093808;28;20063;-61
2022/07/29 09:20:16;;;;;;;4.93;3.53;;;;;;;26.30;45.32;100073.13;5094623;28;20070;-64
2022/07/29 09:22:41;;;;;;;6.22;3.55;;;;;;;26.43;44.52;100053.44;5094751;28;20032;-61
2022/07/29 09:25:07;;;;;;;4.80;3.22;;;;;;;26.68;43.79;100063.38;5093716;28;20062;-63
2022/07/29 09:27:34;;;;;;;8.73;3.30;;;;;;;26.66;44.12;100062.81;5077779;28;20063;-63
2022/07/29 09:30:10;;;;;;;6.97;3.85;;;;;;;26.85;43.43;100057.50;5073719;28;20041;-62
2022/07/29 09:32:59;;;;;;;3.72;2.97;;;;;;;26.92;43.08;100055.25;5085269;28;20444;-63
2022/07/29 09:35:26;;;;;;;10.20;3.55;;;;;;;27.09;43.65;100054.88;5082659;28;20033;-64
2022/07/29 09:37:51;;;;;;;3.60;2.93;;;;;;;27.39;42.74;100045.56;5088638;28;20031;-60
2022/07/29 09:40:21;;;;;;;7.53;3.60;;;;;;;27.64;42.39;100034.31;5093644;28;20039;-63
2022/07/29 09:42:47;;;;;;;5.50;3.20;;;;;;;27.82;42.67;100039.06;5093287;28;20067;-63
2022/07/29 09:45:26;;;;;;;7.45;3.38;;;;;;;27.99;42.52;100043.25;5076865;28;20481;-63
2022/07/29 09:47:52;;;;;;;4.63;3.20;;;;;;;27.84;42.11;100045.09;5074347;28;20048;-64
2022/07/29 09:50:23;;;;;;;4.00;3.50;;;;;;;27.88;41.08;100047.22;5073825;28;20489;-64
2022/07/29 09:52:50;;;;;;;6.30;3.40;;;;;;;27.65;40.94;100049.66;5073066;28;20071;-64
2022/07/29 09:55:17;;;;;;;5.50;2.95;;;;;;;27.40;42.42;100045.28;5074093;28;20047;-59
2022/07/29 09:57:43;;;;;;;7.33;3.00;;;;;;;27.53;43.08;100049.25;5074135;28;20044;-64
2022/07/29 10:00:15;;;;;;;3.35;3.00;;;;;;;27.58;42.74;100046.44;5073742;28;20431;-65
2022/07/29 10:02:45;;;;;;;5.85;3.15;;;;;;;27.27;43.28;100051.44;5073980;28;20047;-63
2022/07/29 10:05:24;;;;;;;6.72;3.03;;;;;;;27.21;43.89;100053.38;5080170;28;20034;-64
2022/07/29 10:07:54;;;;;;;4.53;2.92;;;;;;;27.12;43.25;100049.63;5094102;28;20164;-64
2022/07/29 10:10:20;;;;;;;6.47;3.58;;;;;;;27.19;43.18;100049.28;5093380;28;20122;-63
2022/07/29 10:12:54;;;;;;;5.38;3.38;;;;;;;27.63;43.85;100042.81;5094058;28;20120;-64
2022/07/29 10:15:21;;;;;;;3.75;3.00;;;;;;;28.18;43.45;100041.34;5093895;28;20051;-63
2022/07/29 10:17:47;;;;;;;5.28;3.08;;;;;;;28.52;42.87;100035.69;5093952;28;20113;-64
2022/07/29 10:20:14;;;;;;;3.42;2.50;;;;;;;28.95;40.73;100043.78;5093490;28;20047;-64
2022/07/29 10:22:41;;;;;;;4.75;3.05;;;;;;;28.93;40.67;100038.59;5093547;28;20040;-63
2022/07/29 10:25:08;;;;;;;5.40;2.75;;;;;;;28.56;40.06;100035.88;5093824;28;20121;-64
2022/07/29 10:27:35;;;;;;;4.53;2.85;;;;;;;28.79;40.12;100034.16;5093695;28;20432;-64
2022/07/29 10:30:01;;;;;;;5.47;2.83;;;;;;;28.98;39.29;100026.75;5093277;28;20066;-64
2022/07/29 10:32:35;;;;;;;5.15;2.80;;;;;;;29.38;39.05;100024.38;5078811;28;20032;-64
2022/07/29 10:35:19;;;;;;;7.75;3.90;;;;;;;29.66;37.54;100017.78;5065765;28;20127;-63
2022/07/29 10:38:16;;;;;;;3.10;2.53;;;;;;;29.89;36.76;100007.72;5073372;28;20059;-63
2022/07/29 10:41:28;;;;;;;3.85;2.78;;;;;;;30.66;36.90;100011.47;5054475;28;20036;-60
2022/07/29 10:44:04;;;;;;;3.40;2.75;;;;;;;31.27;33.89;100018.22;5053163;28;20068;-62
2022/07/29 10:46:36;;;;;;;7.65;2.85;;;;;;;31.42;34.64;100005.97;5053064;28;20036;-61
2022/07/29 10:49:08;;;;;;;6.38;3.00;;;;;;;31.35;33.31;100014.69;5052916;28;20508;-62
2022/07/29 10:51:50;;;;;;;4.20;2.33;;;;;;;31.99;33.60;100006.78;5052989;28;20052;-62
2022/07/29 10:54:17;;;;;;;6.13;2.65;;;;;;;32.23;33.89;100009.09;5053129;28;20442;-62
2022/07/29 10:56:43;;;;;;;6.00;2.35;;;;;;;32.55;32.56;100007.81;5052913;28;20021;-62
2022/07/29 10:59:20;;;;;;;5.53;2.70;;;;;;;32.84;30.65;100012.63;5051345;28;20071;-63
2022/07/29 11:01:47;;;;;;;6.93;2.10;;;;;;;32.43;31.42;100018.69;5052794;28;20573;-59
2022/07/29 11:04:13;;;;;;;;;;;;;;;32.23;29.80;100014.59;5053248;28;20028;-61
2022/07/29 11:07:01;;;;;;;6.73;1.97;;;;;;;32.18;30.40;100019.47;5052634;28;20369;-61
2022/07/29 11:09:29;;;;;;;5.53;2.45;;;;;;;32.32;31.02;100009.09;5052419;28;20108;-59
2022/07/29 11:11:55;;;;;;;6.18;2.95;;;;;;;32.98;30.41;100008.91;5052357;28;20509;-61
2022/07/29 11:14:55;;;;;;;4.73;2.10;;;;;;;33.02;29.36;100002.41;5052845;28;20067;-61
2022/07/29 11:17:20;;;;;;;6.15;2.83;;;;;;;33.43;29.83;100000.97;5052365;28;20037;-61
2022/07/29 11:19:46;;;;;;;6.20;3.30;;;;;;;33.60;29.41;100000.91;5056709;28;20086;-61
2022/07/29 11:22:32;;;;;;;3.03;1.97;;;;;;;33.97;29.54;100009.47;5055859;28;20041;-59
2022/07/29 11:25:17;;;;;;;8.68;4.38;;;;;;;34.10;28.37;100002.06;5052350;28;20048;-60
2022/07/29 11:27:44;;;;;;;3.92;2.30;;;;;;;33.60;28.80;100008.38;5062413;28;20045;-60
2022/07/29 11:30:11;;;;;;;3.03;1.70;;;;;;;33.59;27.67;100009.53;5052912;28;20041;-60
2022/07/29 11:32:42;;;;;;;4.65;1.98;;;;;;;34.16;28.74;100006.25;5059840;28;20109;-61
2022/07/29 11:35:22;;;;;;;4.03;1.98;;;;;;;34.24;28.52;100011.72;5065533;28;20063;-60
2022/07/29 11:38:22;;;;;;;2.78;2.13;;;;;;;34.83;28.03;100007.16;5068596;28;20441;-58
2022/07/29 11:41:25;;;;;;;2.60;2.00;;;;;;;34.83;27.54;100002.44;5059719;28;20489;-59
2022/07/29 11:43:52;;;;;;;5.05;2.20;;;;;;;34.40;27.26;100013.88;5067311;28;20480;-62
2022/07/29 11:46:46;;;;;;;2.97;1.98;;;;;;;34.43;27.41;100007.69;5059648;28;20029;-62
2022/07/29 11:49:13;;;;;;;2.47;1.60;;;;;;;34.29;26.36;100013.47;5055822;28;20025;-62
2022/07/29 11:51:39;;;;;;;2.58;1.70;;;;;;;34.20;26.15;100007.19;5063057;28;20375;-62
2022/07/29 11:54:05;;;;;;;4.60;2.03;;;;;;;33.92;27.01;100001.41;5052430;28;20033;-61
2022/07/29 11:56:38;;;;;;;2.03;1.70;;;;;;;34.77;26.44;100006.56;5065230;28;20037;-63
2022/07/29 11:59:08;;;;;;;1.95;1.80;;;;;;;34.42;27.68;100008.81;5051148;28;20098;-63
2022/07/29 12:01:34;;;;;;;2.42;1.92;;;;;;;33.95;27.38;100000.72;5061026;28;20025;-63
2022/07/29 12:04:04;;;;;;;2.28;1.70;;;;;;;33.52;28.67;100010.06;5057892;28;20451;-62
2022/07/29 12:06:30;;;;;;;4.60;1.80;;;;;;;32.91;30.11;100017.69;5051343;28;20131;-62
2022/07/29 12:08:56;;;;;;;2.97;1.70;;;;;;;32.36;31.23;100007.34;5050987;28;20106;-61
2022/07/29 12:11:22;;;;;;;3.40;1.80;;;;;;;31.76;30.73;100010.78;5049747;28;20162;-61
2022/07/29 12:13:48;;;;;;;1.97;1.53;;;;;;;31.63;30.73;100011.72;5051569;28;20295;-63
2022/07/29 12:16:13;;;;;;;2.50;1.80;;;;;;;30.57;31.42;100016.09;5051465;28;20033;-57
2022/07/29 12:18:38;;;;;;;2.87;1.60;;;;;;;30.75;30.95;100009.63;5051267;28;20041;-58
2022/07/29 12:21:04;;;;;;;4.95;2.17;;;;;;;30.52;32.36;100006.88;5050624;28;20145;-59
2022/07/29 12:23:31;;;;;;;3.87;2.03;;;;;;;30.48;32.27;100011.34;5051134;28;20429;-57
2022/07/29 12:25:58;;;;;;;5.38;2.10;;;;;;;30.46;33.61;100007.28;5051223;28;20128;-59
2022/07/29 12:28:24;;;;;;;;;;;;;;;30.32;32.91;100012.84;5051713;28;20120;-53
2022/07/29 12:30:50;;;;;;;2.00;1.60;;;;;;;30.40;33.86;100003.84;5050468;28;20342;-57
2022/07/29 12:33:28;;;;;;;2.88;1.80;;;;;;;30.44;33.10;100004.03;5051162;28;20037;-57
2022/07/29 12:35:56;;;;;;;2.70;1.70;;;;;;;30.12;34.04;99996.81;5051179;28;20033;-56
2022/07/29 12:38:22;;;;;;;3.15;2.03;;;;;;;30.18;33.77;100006.56;5050719;28;20059;-55
2022/07/29 12:40:50;;;;;;;5.13;2.13;;;;;;;30.12;35.09;99997.63;5050346;28;20033;-57
2022/07/29 12:43:20;;;;;;;4.85;3.03;;;;;;;30.15;33.76;99996.19;5053098;28;20591;-57
2022/07/29 12:45:48;;;;;;;2.53;1.50;;;;;;;29.89;32.89;99994.00;5055291;28;20045;-58
2022/07/29 12:48:14;;;;;;;3.22;1.77;;;;;;;29.80;34.06;99986.78;5055319;28;20037;-53
2022/07/29 12:50:57;;;;;;;4.03;1.67;;;;;;;30.04;36.36;99990.09;5071092;28;20052;-57
2022/07/29 12:53:23;;;;;;;5.15;2.90;;;;;;;30.12;35.27;99989.38;5060655;28;20283;-59
2022/07/29 12:55:51;;;;;;;9.20;4.63;;;;;;;30.18;34.21;99990.06;5065200;28;20048;-58
2022/07/29 12:58:37;;;;;;;4.30;2.05;;;;;;;30.32;34.15;100001.00;5057759;28;20131;-55
2022/07/29 13:01:11;;;;;;;2.67;1.70;;;;;;;30.21;33.19;99990.28;5060642;28;20058;-55
2022/07/29 13:03:56;;;;;;;6.55;1.75;;;;;;;30.18;33.37;99998.31;5073769;28;20131;-57
2022/07/29 13:06:34;;;;;;;3.72;1.60;;;;;;;30.22;33.41;100002.88;5069135;28;20486;-58
2022/07/29 13:09:05;;;;;;;4.47;2.05;;;;;;;30.02;32.87;100011.56;5054589;28;20033;-53
2022/07/29 13:11:35;;;;;;;4.40;1.90;;;;;;;29.88;32.46;100008.03;5054876;28;20037;-54
2022/07/29 13:14:01;;;;;;;3.08;1.60;;;;;;;29.71;33.03;100011.38;5053543;28;20043;-52
2022/07/29 13:16:27;;;;;;;3.47;1.75;;;;;;;29.67;33.37;100010.41;5054789;28;20064;-50
2022/07/29 13:19:07;;;;;;;2.85;1.50;;;;;;;29.62;34.35;100016.78;5054703;28;20494;-54
2022/07/29 13:21:33;;;;;;;2.70;1.80;;;;;;;29.78;34.30;100014.53;5054460;28;20028;-54
2022/07/29 13:23:59;;;;;;;5.53;1.92;;;;;;;29.61;33.40;100026.16;5054752;28;20503;-54
2022/07/29 13:26:24;;;;;;;4.35;2.13;;;;;;;29.44;33.73;100032.19;5054522;28;20094;-53
2022/07/29 13:28:50;;;;;;;4.93;1.60;;;;;;;29.24;32.36;100032.56;5054485;28;20036;-53
2022/07/29 13:31:15;;;;;;;2.10;1.60;;;;;;;29.14;33.37;100035.50;5054290;28;20494;-52
2022/07/29 13:33:41;;;;;;;2.08;1.50;;;;;;;29.03;33.41;100026.66;5054429;28;20509;-55
2022/07/29 13:36:06;;;;;;;4.15;1.98;;;;;;;29.04;33.27;100028.28;5054326;28;20048;-55
2022/07/29 13:38:31;;;;;;;4.10;1.80;;;;;;;28.96;34.35;100025.41;5054301;28;20040;-54
2022/07/29 13:40:58;;;;;;;2.40;1.70;;;;;;;28.97;33.16;100027.03;5053953;28;20037;-50
2022/07/29 13:43:23;;;;;;;2.40;1.60;;;;;;;28.82;32.84;100028.06;5054398;28;20052;-58
2022/07/29 13:45:48;;;;;;;2.72;2.17;;;;;;;28.89;33.27;100020.28;5054061;28;20045;-57
2022/07/29 13:48:14;;;;;;;2.85;1.60;;;;;;;28.95;33.77;100026.50;5054106;28;20091;-56
2022/07/29 13:50:39;;;;;;;4.53;1.88;;;;;;;28.96;33.77;100022.69;5053814;28;20050;-57
2022/07/29 13:53:05;;;;;;;4.93;1.88;;;;;;;29.08;33.87;100018.34;5053895;28;20100;-58
2022/07/29 13:55:30;;;;;;;5.40;1.77;;;;;;;29.16;34.97;100011.34;5053643;28;20401;-53
2022/07/29 13:57:56;;;;;;;2.35;1.42;;;;;;;29.29;33.96;100007.81;5053908;28;20495;-58
2022/07/29 14:00:23;;;;;;;3.25;1.20;;;;;;;29.25;33.89;100009.53;5053934;28;20371;-58
2022/07/29 14:02:48;;;;;;;;;;;;;;;29.38;34.65;100005.16;5054390;28;20501;-55
2022/07/29 14:05:14;;;;;;;3.27;1.40;;;;;;;29.39;33.09;100007.59;5053709;28;19921;-58
2022/07/29 14:07:39;;;;;;;2.58;1.60;;;;;;;29.31;32.36;100002.00;5053885;28;20040;-58
2022/07/29 14:10:06;;;;;;;4.05;1.67;;;;;;;29.27;32.00;100010.03;5058855;28;20040;-56
2022/07/29 14:12:31;;;;;;;4.00;2.00;;;;;;;29.29;32.55;100013.28;5053769;28;20110;-58
2022/07/29 14:14:56;;;;;;;3.35;1.85;;;;;;;29.20;32.99;100012.34;5069907;28;20494;-55
2022/07/29 14:17:22;;;;;;;6.22;1.50;;;;;;;29.27;33.04;100009.22;5073571;28;20032;-58
2022/07/29 14:19:48;;;;;;;2.00;1.40;;;;;;;29.41;32.93;100001.81;5073397;28;20499;-58
2022/07/29 14:22:13;;;;;;;3.55;1.60;;;;;;;29.27;32.92;99993.56;5073495;28;20488;-58
2022/07/29 14:24:39;;;;;;;2.03;1.45;;;;;;;29.31;32.97;99999.28;5073436;28;20064;-54
2022/07/29 14:27:06;;;;;;;5.55;1.52;;;;;;;29.15;32.90;99998.75;5073424;28;20047;-55
2022/07/29 14:29:32;;;;;;;2.97;1.50;;;;;;;28.99;32.83;100000.13;5073238;28;20032;-49
2022/07/29 14:31:58;;;;;;;1.98;1.38;;;;;;;29.00;34.04;100004.50;5073114;28;20039;-54
2022/07/29 14:34:23;;;;;;;2.72;1.80;;;;;;;29.06;33.21;100006.84;5073345;28;20040;-49
2022/07/29 14:36:49;;;;;;;3.72;1.77;;;;;;;29.01;33.15;100001.44;5073158;28;20047;-53
2022/07/29 14:39:15;;;;;;;2.38;1.83;;;;;;;28.87;33.15;100004.13;5072869;28;20040;-52
2022/07/29 14:41:41;;;;;;;2.25;1.50;;;;;;;28.96;32.04;100004.31;5073241;28;20028;-54
2022/07/29 14:44:06;;;;;;;4.35;1.67;;;;;;;28.80;32.32;99992.75;5073201;28;20119;-51
2022/07/29 14:46:31;;;;;;;2.65;1.30;;;;;;;28.90;32.83;100000.81;5073250;28;20040;-56
2022/07/29 14:48:57;;;;;;;4.75;1.70;;;;;;;28.98;33.28;99999.31;5067421;28;20040;-54
2022/07/29 14:51:22;;;;;;;3.00;1.63;;;;;;;29.04;32.78;100000.88;5069402;28;20033;-51
2022/07/29 14:53:48;;;;;;;2.80;1.58;;;;;;;28.90;32.27;99995.31;5072924;28;20120;-51
2022/07/29 14:56:13;;;;;;;6.78;1.70;;;;;;;28.89;32.87;99993.69;5072780;28;20036;-55
2022/07/29 14:58:38;;;;;;;3.13;1.83;;;;;;;28.99;32.81;100000.94;5072866;28;20041;-56
2022/07/29 15:01:04;;;;;;;2.47;1.48;;;;;;;29.09;34.09;99992.56;5072391;28;20501;-55
2022/07/29 15:03:29;;;;;;;1.77;1.50;;;;;;;29.12;31.93;99985.63;5072637;28;20571;-58
2022/07/29 15:05:55;;;;;;;1.67;1.42;;;;;;;29.19;32.35;99997.00;5051966;28;20075;-55
2022/07/29 15:08:20;;;;;;;2.42;1.58;;;;;;;29.11;31.26;100000.47;5055265;28;20494;-57
2022/07/29 15:10:46;;;;;;;3.83;1.50;;;;;;;29.11;31.33;99998.53;5064482;28;20078;-55
2022/07/29 15:13:11;;;;;;;4.88;1.50;;;;;;;29.09;32.21;99991.75;5069274;28;20033;-56
2022/07/29 15:15:37;;;;;;;5.05;1.33;;;;;;;28.97;31.00;100003.19;5060057;28;20055;-55
2022/07/29 15:18:03;;;;;;;3.45;1.48;;;;;;;28.89;30.63;99998.38;5063079;28;20039;-57
2022/07/29 15:20:29;;;;;;;3.40;1.40;;;;;;;28.72;30.48;99992.63;5054872;28;20041;-58
2022/07/29 15:22:55;;;;;;;2.28;1.50;;;;;;;28.73;31.23;99984.09;5068242;28;20052;-57
2022/07/29 15:25:22;;;;;;;2.90;1.30;;;;;;;28.72;31.49;99998.09;5072193;28;20036;-57
2022/07/29 15:27:48;;;;;;;1.88;1.27;;;;;;;28.63;31.14;99992.50;5072374;28;20024;-58
2022/07/29 15:30:16;;;;;;;5.15;1.20;;;;;;;28.58;30.02;99989.84;5071925;28;20039;-58
2022/07/29 15:32:42;;;;;;;4.20;1.45;;;;;;;28.61;30.62;99986.50;5071997;28;20033;-56
2022/07/29 15:35:09;;;;;;;2.95;1.08;;;;;;;28.71;30.87;99986.34;5072152;28;20046;-56
2022/07/29 15:37:36;;;;;;;7.57;2.13;;;;;;;28.87;30.50;99984.94;5072027;28;20413;-57
2022/07/29 15:40:02;;;;;;;2.33;1.52;;;;;;;28.91;31.67;99982.44;5071796;28;20047;-58
2022/07/29 15:42:27;;;;;;;2.72;1.60;;;;;;;28.93;30.29;99989.25;5071890;28;20029;-61
2022/07/29 15:44:53;;;;;;;1.85;1.25;;;;;;;28.86;31.01;99997.03;5072088;28;20482;-58
2022/07/29 15:47:18;;;;;;;3.03;1.45;;;;;;;28.83;30.72;99985.88;5072003;28;20105;-59
2022/07/29 15:49:44;;;;;;;2.78;1.52;;;;;;;28.78;29.86;99992.25;5068211;28;20033;-56
2022/07/29 15:52:10;;;;;;;3.53;2.00;;;;;;;28.69;30.35;99993.22;5065471;28;20114;-55